sensor_id;sensor_type;location;lat;lon;timestamp;P1;durP1;ratioP1;P2;durP2;ratioP2
7971;SDS011;4031;49.758;6.120;2023-06-01T00:01:47;3.53;;;2.13;;
7971;SDS011;4031;49.758;6.120;2023-06-01T00:04:12;2.87;;;2.27;;
7971;SDS011;4031;49.758;6.120;2023-06-01T00:06:38;2.37;;;2.17;;
7971;SDS011;4031;49.758;6.120;2023-06-01T00:09:05;2.30;;;2.00;;
7971;SDS011;4031;49.758;6.120;2023-06-01T00:11:31;2.77;;;2.10;;
7971;SDS011;4031;49.758;6.120;2023-06-01T00:13:57;5.33;;;2.33;;
7971;SDS011;4031;49.758;6.120;2023-06-01T00:16:22;6.03;;;2.10;;
7971;SDS011;4031;49.758;6.120;2023-06-01T00:18:48;2.17;;;1.97;;
7971;SDS011;4031;49.758;6.120;2023-06-01T00:21:17;3.77;;;1.80;;
7971;SDS011;4031;49.758;6.120;2023-06-01T00:23:44;1.67;;;1.57;;
7971;SDS011;4031;49.758;6.120;2023-06-01T00:26:11;6.10;;;2.57;;
7971;SDS011;4031;49.758;6.120;2023-06-01T00:28:37;3.17;;;2.00;;
7971;SDS011;4031;49.758;6.120;2023-06-01T00:31:02;6.50;;;2.90;;
7971;SDS011;4031;49.758;6.120;2023-06-01T00:33:28;2.87;;;2.40;;
7971;SDS011;4031;49.758;6.120;2023-06-01T00:35:54;3.43;;;2.73;;
7971;SDS011;4031;49.758;6.120;2023-06-01T00:38:20;4.00;;;2.53;;
7971;SDS011;4031;49.758;6.120;2023-06-01T00:40:45;5.30;;;2.73;;
7971;SDS011;4031;49.758;6.120;2023-06-01T00:43:15;5.60;;;2.80;;
7971;SDS011;4031;49.758;6.120;2023-06-01T00:45:41;2.83;;;2.00;;
7971;SDS011;4031;49.758;6.120;2023-06-01T00:48:07;2.80;;;2.13;;
7971;SDS011;4031;49.758;6.120;2023-06-01T00:50:33;2.13;;;1.97;;
7971;SDS011;4031;49.758;6.120;2023-06-01T00:53:00;4.20;;;2.30;;
7971;SDS011;4031;49.758;6.120;2023-06-01T00:55:28;2.33;;;2.13;;
7971;SDS011;4031;49.758;6.120;2023-06-01T00:57:54;3.37;;;2.00;;
7971;SDS011;4031;49.758;6.120;2023-06-01T01:00:20;2.30;;;1.73;;
7971;SDS011;4031;49.758;6.120;2023-06-01T01:02:48;3.13;;;2.40;;
7971;SDS011;4031;49.758;6.120;2023-06-01T01:05:14;2.33;;;1.90;;
7971;SDS011;4031;49.758;6.120;2023-06-01T01:10:22;3.97;;;2.50;;
7971;SDS011;4031;49.758;6.120;2023-06-01T01:13:09;2.30;;;2.10;;
7971;SDS011;4031;49.758;6.120;2023-06-01T01:19:07;2.97;;;2.10;;
7971;SDS011;4031;49.758;6.120;2023-06-01T01:21:32;3.97;;;2.33;;
7971;SDS011;4031;49.758;6.120;2023-06-01T01:30:04;3.70;;;1.90;;
7971;SDS011;4031;49.758;6.120;2023-06-01T01:32:32;2.70;;;2.00;;
7971;SDS011;4031;49.758;6.120;2023-06-01T01:35:00;3.67;;;1.80;;
7971;SDS011;4031;49.758;6.120;2023-06-01T01:37:26;6.10;;;2.40;;
7971;SDS011;4031;49.758;6.120;2023-06-01T01:39:52;4.07;;;2.50;;
7971;SDS011;4031;49.758;6.120;2023-06-01T01:42:18;2.20;;;2.00;;
7971;SDS011;4031;49.758;6.120;2023-06-01T01:44:44;3.43;;;2.47;;
7971;SDS011;4031;49.758;6.120;2023-06-01T01:47:12;2.10;;;2.00;;
7971;SDS011;4031;49.758;6.120;2023-06-01T01:50:14;2.50;;;2.00;;
7971;SDS011;4031;49.758;6.120;2023-06-01T01:52:43;2.30;;;2.07;;
7971;SDS011;4031;49.758;6.120;2023-06-01T01:55:11;2.90;;;2.40;;
7971;SDS011;4031;49.758;6.120;2023-06-01T01:57:40;4.03;;;2.50;;
7971;SDS011;4031;49.758;6.120;2023-06-01T02:00:07;4.77;;;2.80;;
7971;SDS011;4031;49.758;6.120;2023-06-01T02:02:34;4.80;;;2.63;;
7971;SDS011;4031;49.758;6.120;2023-06-01T02:04:59;3.03;;;2.00;;
7971;SDS011;4031;49.758;6.120;2023-06-01T02:07:25;8.80;;;2.87;;
7971;SDS011;4031;49.758;6.120;2023-06-01T02:09:51;3.07;;;2.80;;
7971;SDS011;4031;49.758;6.120;2023-06-01T02:12:17;2.77;;;2.30;;
7971;SDS011;4031;49.758;6.120;2023-06-01T02:14:42;4.90;;;2.57;;
7971;SDS011;4031;49.758;6.120;2023-06-01T02:17:08;4.43;;;2.60;;
7971;SDS011;4031;49.758;6.120;2023-06-01T02:19:34;7.17;;;3.10;;
7971;SDS011;4031;49.758;6.120;2023-06-01T02:21:59;2.93;;;2.10;;
7971;SDS011;4031;49.758;6.120;2023-06-01T02:24:25;2.67;;;2.47;;
7971;SDS011;4031;49.758;6.120;2023-06-01T02:26:51;3.43;;;2.60;;
7971;SDS011;4031;49.758;6.120;2023-06-01T02:29:18;2.80;;;2.60;;
7971;SDS011;4031;49.758;6.120;2023-06-01T02:31:47;2.87;;;2.53;;
7971;SDS011;4031;49.758;6.120;2023-06-01T02:34:17;2.70;;;2.50;;
7971;SDS011;4031;49.758;6.120;2023-06-01T02:36:43;4.10;;;2.30;;
7971;SDS011;4031;49.758;6.120;2023-06-01T02:39:09;2.77;;;2.57;;
7971;SDS011;4031;49.758;6.120;2023-06-01T02:41:35;4.10;;;2.73;;
7971;SDS011;4031;49.758;6.120;2023-06-01T02:44:01;3.20;;;2.30;;
7971;SDS011;4031;49.758;6.120;2023-06-01T02:46:27;3.93;;;2.87;;
7971;SDS011;4031;49.758;6.120;2023-06-01T02:48:53;2.70;;;2.10;;
7971;SDS011;4031;49.758;6.120;2023-06-01T02:51:19;2.67;;;2.27;;
7971;SDS011;4031;49.758;6.120;2023-06-01T02:53:44;2.60;;;1.93;;
7971;SDS011;4031;49.758;6.120;2023-06-01T02:56:13;3.30;;;2.87;;
7971;SDS011;4031;49.758;6.120;2023-06-01T02:58:39;3.83;;;2.57;;
7971;SDS011;4031;49.758;6.120;2023-06-01T03:01:06;3.00;;;2.40;;
7971;SDS011;4031;49.758;6.120;2023-06-01T03:03:36;5.40;;;2.20;;
7971;SDS011;4031;49.758;6.120;2023-06-01T03:06:03;3.83;;;2.33;;
7971;SDS011;4031;49.758;6.120;2023-06-01T03:08:31;3.37;;;2.90;;
7971;SDS011;4031;49.758;6.120;2023-06-01T03:10:56;3.27;;;2.90;;
7971;SDS011;4031;49.758;6.120;2023-06-01T03:13:22;3.37;;;2.83;;
7971;SDS011;4031;49.758;6.120;2023-06-01T03:15:48;2.60;;;2.13;;
7971;SDS011;4031;49.758;6.120;2023-06-01T03:18:15;2.73;;;2.43;;
7971;SDS011;4031;49.758;6.120;2023-06-01T03:20:41;4.27;;;2.90;;
7971;SDS011;4031;49.758;6.120;2023-06-01T03:23:07;3.43;;;2.13;;
7971;SDS011;4031;49.758;6.120;2023-06-01T03:25:33;2.93;;;2.40;;
7971;SDS011;4031;49.758;6.120;2023-06-01T03:27:58;4.93;;;2.90;;
7971;SDS011;4031;49.758;6.120;2023-06-01T03:30:24;2.87;;;2.37;;
7971;SDS011;4031;49.758;6.120;2023-06-01T03:32:50;2.40;;;2.30;;
7971;SDS011;4031;49.758;6.120;2023-06-01T03:35:16;4.27;;;2.93;;
7971;SDS011;4031;49.758;6.120;2023-06-01T03:37:43;3.53;;;2.80;;
7971;SDS011;4031;49.758;6.120;2023-06-01T03:40:10;2.30;;;2.10;;
7971;SDS011;4031;49.758;6.120;2023-06-01T03:42:40;2.53;;;2.33;;
7971;SDS011;4031;49.758;6.120;2023-06-01T03:45:08;2.97;;;2.33;;
7971;SDS011;4031;49.758;6.120;2023-06-01T03:47:35;5.63;;;2.80;;
7971;SDS011;4031;49.758;6.120;2023-06-01T03:50:02;3.73;;;3.33;;
7971;SDS011;4031;49.758;6.120;2023-06-01T03:52:29;4.77;;;3.50;;
7971;SDS011;4031;49.758;6.120;2023-06-01T03:54:58;2.63;;;2.13;;
7971;SDS011;4031;49.758;6.120;2023-06-01T03:57:29;7.00;;;3.20;;
7971;SDS011;4031;49.758;6.120;2023-06-01T03:59:55;3.53;;;2.60;;
7971;SDS011;4031;49.758;6.120;2023-06-01T04:02:21;5.50;;;3.10;;
7971;SDS011;4031;49.758;6.120;2023-06-01T04:04:48;3.77;;;2.80;;
7971;SDS011;4031;49.758;6.120;2023-06-01T04:07:14;4.17;;;2.50;;
7971;SDS011;4031;49.758;6.120;2023-06-01T04:09:43;3.70;;;2.80;;
7971;SDS011;4031;49.758;6.120;2023-06-01T04:12:10;4.23;;;2.60;;
7971;SDS011;4031;49.758;6.120;2023-06-01T04:14:36;4.27;;;2.90;;
7971;SDS011;4031;49.758;6.120;2023-06-01T04:17:02;5.63;;;2.73;;
7971;SDS011;4031;49.758;6.120;2023-06-01T04:19:28;5.17;;;2.80;;
7971;SDS011;4031;49.758;6.120;2023-06-01T04:21:55;3.67;;;3.00;;
7971;SDS011;4031;49.758;6.120;2023-06-01T04:24:21;3.50;;;3.07;;
7971;SDS011;4031;49.758;6.120;2023-06-01T04:26:47;3.00;;;2.53;;
7971;SDS011;4031;49.758;6.120;2023-06-01T04:29:14;3.20;;;2.63;;
7971;SDS011;4031;49.758;6.120;2023-06-01T04:31:41;2.80;;;2.50;;
7971;SDS011;4031;49.758;6.120;2023-06-01T04:34:06;5.80;;;3.47;;
7971;SDS011;4031;49.758;6.120;2023-06-01T04:36:32;6.10;;;2.73;;
7971;SDS011;4031;49.758;6.120;2023-06-01T04:39:02;4.63;;;2.77;;
7971;SDS011;4031;49.758;6.120;2023-06-01T04:41:28;6.30;;;3.27;;
7971;SDS011;4031;49.758;6.120;2023-06-01T04:43:56;4.90;;;3.07;;
7971;SDS011;4031;49.758;6.120;2023-06-01T04:46:23;3.37;;;2.53;;
7971;SDS011;4031;49.758;6.120;2023-06-01T04:48:54;4.63;;;2.73;;
7971;SDS011;4031;49.758;6.120;2023-06-01T04:51:22;2.83;;;2.63;;
7971;SDS011;4031;49.758;6.120;2023-06-01T04:53:49;4.93;;;3.13;;
7971;SDS011;4031;49.758;6.120;2023-06-01T04:56:21;6.03;;;3.40;;
7971;SDS011;4031;49.758;6.120;2023-06-01T04:58:55;4.87;;;3.10;;
7971;SDS011;4031;49.758;6.120;2023-06-01T05:01:22;5.20;;;3.37;;
7971;SDS011;4031;49.758;6.120;2023-06-01T05:03:54;4.93;;;3.33;;
7971;SDS011;4031;49.758;6.120;2023-06-01T05:06:20;5.03;;;3.53;;
7971;SDS011;4031;49.758;6.120;2023-06-01T05:08:46;5.63;;;4.43;;
7971;SDS011;4031;49.758;6.120;2023-06-01T05:11:13;4.73;;;3.23;;
7971;SDS011;4031;49.758;6.120;2023-06-01T05:13:39;2.83;;;2.53;;
7971;SDS011;4031;49.758;6.120;2023-06-01T05:16:06;4.37;;;3.00;;
7971;SDS011;4031;49.758;6.120;2023-06-01T05:18:33;4.77;;;3.40;;
7971;SDS011;4031;49.758;6.120;2023-06-01T05:21:00;6.10;;;3.77;;
7971;SDS011;4031;49.758;6.120;2023-06-01T05:23:26;3.33;;;3.03;;
7971;SDS011;4031;49.758;6.120;2023-06-01T05:25:53;4.07;;;2.90;;
7971;SDS011;4031;49.758;6.120;2023-06-01T05:28:26;3.20;;;2.37;;
7971;SDS011;4031;49.758;6.120;2023-06-01T05:30:56;5.50;;;3.37;;
7971;SDS011;4031;49.758;6.120;2023-06-01T05:33:22;3.83;;;2.10;;
7971;SDS011;4031;49.758;6.120;2023-06-01T05:35:48;3.27;;;2.90;;
7971;SDS011;4031;49.758;6.120;2023-06-01T05:38:13;3.30;;;2.37;;
7971;SDS011;4031;49.758;6.120;2023-06-01T05:40:39;3.63;;;2.90;;
7971;SDS011;4031;49.758;6.120;2023-06-01T05:43:05;5.10;;;2.67;;
7971;SDS011;4031;49.758;6.120;2023-06-01T05:45:32;2.70;;;2.50;;
7971;SDS011;4031;49.758;6.120;2023-06-01T05:47:58;3.33;;;2.70;;
7971;SDS011;4031;49.758;6.120;2023-06-01T05:50:24;5.57;;;3.03;;
7971;SDS011;4031;49.758;6.120;2023-06-01T05:52:50;3.17;;;2.40;;
7971;SDS011;4031;49.758;6.120;2023-06-01T05:55:16;8.10;;;2.80;;
7971;SDS011;4031;49.758;6.120;2023-06-01T05:57:42;3.07;;;2.53;;
7971;SDS011;4031;49.758;6.120;2023-06-01T06:00:08;3.57;;;2.27;;
7971;SDS011;4031;49.758;6.120;2023-06-01T06:02:35;2.63;;;2.43;;
7971;SDS011;4031;49.758;6.120;2023-06-01T06:05:01;3.63;;;2.83;;
7971;SDS011;4031;49.758;6.120;2023-06-01T06:07:28;3.30;;;2.50;;
7971;SDS011;4031;49.758;6.120;2023-06-01T06:09:55;2.60;;;2.40;;
7971;SDS011;4031;49.758;6.120;2023-06-01T06:12:21;3.10;;;2.67;;
7971;SDS011;4031;49.758;6.120;2023-06-01T06:14:46;7.20;;;2.43;;
7971;SDS011;4031;49.758;6.120;2023-06-01T06:17:13;3.00;;;2.40;;
7971;SDS011;4031;49.758;6.120;2023-06-01T06:19:40;4.60;;;3.00;;
7971;SDS011;4031;49.758;6.120;2023-06-01T06:22:08;3.27;;;2.67;;
7971;SDS011;4031;49.758;6.120;2023-06-01T06:24:34;6.60;;;2.30;;
7971;SDS011;4031;49.758;6.120;2023-06-01T06:27:00;2.50;;;2.13;;
7971;SDS011;4031;49.758;6.120;2023-06-01T06:29:26;4.60;;;2.00;;
7971;SDS011;4031;49.758;6.120;2023-06-01T06:31:54;2.60;;;2.40;;
7971;SDS011;4031;49.758;6.120;2023-06-01T06:34:20;2.33;;;2.13;;
7971;SDS011;4031;49.758;6.120;2023-06-01T06:36:45;1.97;;;1.60;;
7971;SDS011;4031;49.758;6.120;2023-06-01T06:39:11;3.33;;;1.93;;
7971;SDS011;4031;49.758;6.120;2023-06-01T06:41:39;3.37;;;2.30;;
7971;SDS011;4031;49.758;6.120;2023-06-01T06:44:06;2.30;;;2.20;;
7971;SDS011;4031;49.758;6.120;2023-06-01T06:46:32;2.63;;;2.00;;
7971;SDS011;4031;49.758;6.120;2023-06-01T06:48:57;2.13;;;1.87;;
7971;SDS011;4031;49.758;6.120;2023-06-01T06:51:23;2.40;;;1.93;;
7971;SDS011;4031;49.758;6.120;2023-06-01T06:53:49;5.20;;;2.00;;
7971;SDS011;4031;49.758;6.120;2023-06-01T06:56:15;2.90;;;1.80;;
7971;SDS011;4031;49.758;6.120;2023-06-01T06:58:41;2.60;;;1.70;;
7971;SDS011;4031;49.758;6.120;2023-06-01T07:01:08;3.90;;;1.90;;
7971;SDS011;4031;49.758;6.120;2023-06-01T07:03:34;2.33;;;2.13;;
7971;SDS011;4031;49.758;6.120;2023-06-01T07:05:59;3.60;;;1.60;;
7971;SDS011;4031;49.758;6.120;2023-06-01T07:08:25;2.87;;;2.23;;
7971;SDS011;4031;49.758;6.120;2023-06-01T07:10:52;2.57;;;1.90;;
7971;SDS011;4031;49.758;6.120;2023-06-01T07:13:20;2.23;;;1.73;;
7971;SDS011;4031;49.758;6.120;2023-06-01T07:15:47;2.73;;;1.60;;
7971;SDS011;4031;49.758;6.120;2023-06-01T07:18:12;4.00;;;2.50;;
7971;SDS011;4031;49.758;6.120;2023-06-01T07:20:38;2.70;;;2.43;;
7971;SDS011;4031;49.758;6.120;2023-06-01T07:23:04;2.00;;;1.67;;
7971;SDS011;4031;49.758;6.120;2023-06-01T07:25:30;2.00;;;1.70;;
7971;SDS011;4031;49.758;6.120;2023-06-01T07:27:56;7.47;;;2.00;;
7971;SDS011;4031;49.758;6.120;2023-06-01T07:30:21;2.47;;;1.70;;
7971;SDS011;4031;49.758;6.120;2023-06-01T07:32:47;2.20;;;1.80;;
7971;SDS011;4031;49.758;6.120;2023-06-01T07:35:13;1.30;;;1.20;;
7971;SDS011;4031;49.758;6.120;2023-06-01T07:37:39;2.40;;;1.50;;
7971;SDS011;4031;49.758;6.120;2023-06-01T07:40:05;2.77;;;1.93;;
7971;SDS011;4031;49.758;6.120;2023-06-01T07:42:32;1.93;;;1.73;;
7971;SDS011;4031;49.758;6.120;2023-06-01T07:44:58;2.40;;;1.50;;
7971;SDS011;4031;49.758;6.120;2023-06-01T07:47:24;2.50;;;1.63;;
7971;SDS011;4031;49.758;6.120;2023-06-01T07:49:50;2.60;;;1.93;;
7971;SDS011;4031;49.758;6.120;2023-06-01T07:52:16;2.03;;;1.70;;
7971;SDS011;4031;49.758;6.120;2023-06-01T07:54:42;2.10;;;1.90;;
7971;SDS011;4031;49.758;6.120;2023-06-01T07:57:08;1.70;;;1.60;;
7971;SDS011;4031;49.758;6.120;2023-06-01T07:59:34;3.70;;;2.07;;
7971;SDS011;4031;49.758;6.120;2023-06-01T08:02:00;1.37;;;1.27;;
7971;SDS011;4031;49.758;6.120;2023-06-01T08:04:26;2.90;;;1.80;;
7971;SDS011;4031;49.758;6.120;2023-06-01T08:06:52;3.13;;;2.20;;
7971;SDS011;4031;49.758;6.120;2023-06-01T08:09:21;2.60;;;1.33;;
7971;SDS011;4031;49.758;6.120;2023-06-01T08:11:48;1.67;;;1.57;;
7971;SDS011;4031;49.758;6.120;2023-06-01T08:14:15;2.40;;;1.63;;
7971;SDS011;4031;49.758;6.120;2023-06-01T08:16:42;2.10;;;1.67;;
7971;SDS011;4031;49.758;6.120;2023-06-01T08:19:08;4.80;;;2.10;;
7971;SDS011;4031;49.758;6.120;2023-06-01T08:21:34;1.50;;;1.40;;
7971;SDS011;4031;49.758;6.120;2023-06-01T08:24:02;1.80;;;1.50;;
7971;SDS011;4031;49.758;6.120;2023-06-01T08:26:28;1.70;;;1.50;;
7971;SDS011;4031;49.758;6.120;2023-06-01T08:28:54;1.80;;;1.70;;
7971;SDS011;4031;49.758;6.120;2023-06-01T08:31:20;3.20;;;1.70;;
7971;SDS011;4031;49.758;6.120;2023-06-01T08:33:49;3.87;;;1.80;;
7971;SDS011;4031;49.758;6.120;2023-06-01T08:36:16;2.53;;;1.70;;
7971;SDS011;4031;49.758;6.120;2023-06-01T08:38:43;2.13;;;1.70;;
7971;SDS011;4031;49.758;6.120;2023-06-01T08:41:57;2.53;;;2.07;;
7971;SDS011;4031;49.758;6.120;2023-06-01T08:44:05;3.30;;;1.93;;
7971;SDS011;4031;49.758;6.120;2023-06-01T08:46:34;3.30;;;1.70;;
7971;SDS011;4031;49.758;6.120;2023-06-01T08:49:01;2.00;;;1.80;;
7971;SDS011;4031;49.758;6.120;2023-06-01T08:51:27;2.00;;;1.40;;
7971;SDS011;4031;49.758;6.120;2023-06-01T08:53:58;1.50;;;1.40;;
7971;SDS011;4031;49.758;6.120;2023-06-01T08:56:28;2.60;;;1.47;;
7971;SDS011;4031;49.758;6.120;2023-06-01T08:58:55;1.40;;;1.30;;
7971;SDS011;4031;49.758;6.120;2023-06-01T09:01:22;2.63;;;1.60;;
7971;SDS011;4031;49.758;6.120;2023-06-01T09:03:48;1.63;;;1.53;;
7971;SDS011;4031;49.758;6.120;2023-06-01T09:06:16;2.20;;;1.97;;
7971;SDS011;4031;49.758;6.120;2023-06-01T09:08:42;2.13;;;1.70;;
7971;SDS011;4031;49.758;6.120;2023-06-01T09:11:10;2.60;;;1.67;;
7971;SDS011;4031;49.758;6.120;2023-06-01T09:13:36;2.20;;;2.00;;
7971;SDS011;4031;49.758;6.120;2023-06-01T09:16:04;8.00;;;5.50;;
7971;SDS011;4031;49.758;6.120;2023-06-01T09:18:31;8.67;;;5.80;;
7971;SDS011;4031;49.758;6.120;2023-06-01T09:21:10;4.93;;;2.23;;
7971;SDS011;4031;49.758;6.120;2023-06-01T09:23:37;1.67;;;1.57;;
7971;SDS011;4031;49.758;6.120;2023-06-01T09:26:04;1.77;;;1.60;;
7971;SDS011;4031;49.758;6.120;2023-06-01T09:28:51;3.30;;;1.83;;
7971;SDS011;4031;49.758;6.120;2023-06-01T09:31:34;2.53;;;1.57;;
7971;SDS011;4031;49.758;6.120;2023-06-01T09:34:07;1.63;;;1.53;;
7971;SDS011;4031;49.758;6.120;2023-06-01T09:36:51;2.40;;;1.87;;
7971;SDS011;4031;49.758;6.120;2023-06-01T09:39:20;1.97;;;1.87;;
7971;SDS011;4031;49.758;6.120;2023-06-01T09:41:57;1.70;;;1.60;;
7971;SDS011;4031;49.758;6.120;2023-06-01T09:44:28;1.90;;;1.40;;
7971;SDS011;4031;49.758;6.120;2023-06-01T09:47:08;1.47;;;1.20;;
7971;SDS011;4031;49.758;6.120;2023-06-01T09:49:38;1.50;;;1.33;;
7971;SDS011;4031;49.758;6.120;2023-06-01T09:52:09;2.03;;;1.83;;
7971;SDS011;4031;49.758;6.120;2023-06-01T09:54:42;1.53;;;1.43;;
7971;SDS011;4031;49.758;6.120;2023-06-01T09:57:19;2.60;;;1.47;;
7971;SDS011;4031;49.758;6.120;2023-06-01T09:59:50;1.43;;;1.23;;
7971;SDS011;4031;49.758;6.120;2023-06-01T10:02:17;3.80;;;1.43;;
7971;SDS011;4031;49.758;6.120;2023-06-01T10:04:49;1.67;;;1.57;;
7971;SDS011;4031;49.758;6.120;2023-06-01T10:07:22;5.27;;;2.10;;
7971;SDS011;4031;49.758;6.120;2023-06-01T10:09:53;3.00;;;1.30;;
7971;SDS011;4031;49.758;6.120;2023-06-01T10:12:22;1.30;;;1.20;;
7971;SDS011;4031;49.758;6.120;2023-06-01T10:14:53;1.63;;;1.53;;
7971;SDS011;4031;49.758;6.120;2023-06-01T10:17:20;1.93;;;1.27;;
7971;SDS011;4031;49.758;6.120;2023-06-01T10:19:47;1.73;;;1.63;;
7971;SDS011;4031;49.758;6.120;2023-06-01T10:22:14;1.57;;;1.30;;
7971;SDS011;4031;49.758;6.120;2023-06-01T10:24:40;3.23;;;1.50;;
7971;SDS011;4031;49.758;6.120;2023-06-01T10:27:23;1.53;;;1.13;;
7971;SDS011;4031;49.758;6.120;2023-06-01T10:30:00;1.67;;;1.57;;
7971;SDS011;4031;49.758;6.120;2023-06-01T10:35:02;1.80;;;1.03;;
7971;SDS011;4031;49.758;6.120;2023-06-01T10:37:29;2.97;;;1.33;;
7971;SDS011;4031;49.758;6.120;2023-06-01T10:42:50;1.80;;;1.30;;
7971;SDS011;4031;49.758;6.120;2023-06-01T10:48:06;3.13;;;1.60;;
7971;SDS011;4031;49.758;6.120;2023-06-01T10:50:35;1.60;;;1.50;;
7971;SDS011;4031;49.758;6.120;2023-06-01T10:59:32;1.90;;;1.27;;
7971;SDS011;4031;49.758;6.120;2023-06-01T11:01:43;1.90;;;1.77;;
7971;SDS011;4031;49.758;6.120;2023-06-01T11:04:11;1.43;;;1.30;;
7971;SDS011;4031;49.758;6.120;2023-06-01T11:06:38;1.63;;;1.30;;
7971;SDS011;4031;49.758;6.120;2023-06-01T11:09:08;2.10;;;1.20;;
7971;SDS011;4031;49.758;6.120;2023-06-01T11:14:17;1.20;;;1.10;;
7971;SDS011;4031;49.758;6.120;2023-06-01T11:16:49;3.20;;;1.60;;
7971;SDS011;4031;49.758;6.120;2023-06-01T11:19:22;1.67;;;1.40;;
7971;SDS011;4031;49.758;6.120;2023-06-01T11:21:54;1.97;;;1.00;;
7971;SDS011;4031;49.758;6.120;2023-06-01T11:24:30;1.57;;;1.37;;
7971;SDS011;4031;49.758;6.120;2023-06-01T11:27:05;2.63;;;2.10;;
7971;SDS011;4031;49.758;6.120;2023-06-01T11:29:36;1.60;;;1.50;;
7971;SDS011;4031;49.758;6.120;2023-06-01T11:32:02;1.57;;;1.47;;
7971;SDS011;4031;49.758;6.120;2023-06-01T11:34:34;2.00;;;1.30;;
7971;SDS011;4031;49.758;6.120;2023-06-01T11:37:06;1.30;;;1.20;;
7971;SDS011;4031;49.758;6.120;2023-06-01T11:39:41;2.50;;;2.13;;
7971;SDS011;4031;49.758;6.120;2023-06-01T11:42:08;1.60;;;1.50;;
7971;SDS011;4031;49.758;6.120;2023-06-01T11:44:37;2.43;;;1.40;;
7971;SDS011;4031;49.758;6.120;2023-06-01T11:47:05;1.97;;;1.30;;
7971;SDS011;4031;49.758;6.120;2023-06-01T11:49:42;1.83;;;1.73;;
7971;SDS011;4031;49.758;6.120;2023-06-01T11:52:13;2.30;;;1.37;;
7971;SDS011;4031;49.758;6.120;2023-06-01T11:54:40;2.03;;;1.77;;
7971;SDS011;4031;49.758;6.120;2023-06-01T11:57:07;2.70;;;0.90;;
7971;SDS011;4031;49.758;6.120;2023-06-01T11:59:43;1.67;;;1.33;;
7971;SDS011;4031;49.758;6.120;2023-06-01T12:04:55;3.00;;;1.97;;
7971;SDS011;4031;49.758;6.120;2023-06-01T12:07:42;1.80;;;1.63;;
7971;SDS011;4031;49.758;6.120;2023-06-01T12:10:09;1.63;;;1.20;;
7971;SDS011;4031;49.758;6.120;2023-06-01T12:12:39;2.80;;;1.37;;
7971;SDS011;4031;49.758;6.120;2023-06-01T12:15:06;2.13;;;1.60;;
7971;SDS011;4031;49.758;6.120;2023-06-01T12:20:33;2.27;;;1.70;;
7971;SDS011;4031;49.758;6.120;2023-06-01T12:23:11;3.30;;;1.63;;
7971;SDS011;4031;49.758;6.120;2023-06-01T12:25:50;3.40;;;1.50;;
7971;SDS011;4031;49.758;6.120;2023-06-01T12:28:19;2.20;;;1.60;;
7971;SDS011;4031;49.758;6.120;2023-06-01T12:30:48;1.63;;;1.53;;
7971;SDS011;4031;49.758;6.120;2023-06-01T12:33:33;2.50;;;1.70;;
7971;SDS011;4031;49.758;6.120;2023-06-01T12:36:01;2.63;;;1.20;;
7971;SDS011;4031;49.758;6.120;2023-06-01T12:38:34;1.57;;;1.30;;
7971;SDS011;4031;49.758;6.120;2023-06-01T12:41:20;5.80;;;1.50;;
7971;SDS011;4031;49.758;6.120;2023-06-01T12:43:47;1.57;;;1.27;;
7971;SDS011;4031;49.758;6.120;2023-06-01T12:46:24;1.77;;;1.63;;
7971;SDS011;4031;49.758;6.120;2023-06-01T12:48:52;1.40;;;1.30;;
7971;SDS011;4031;49.758;6.120;2023-06-01T12:51:35;1.30;;;1.20;;
7971;SDS011;4031;49.758;6.120;2023-06-01T12:54:01;1.73;;;1.57;;
7971;SDS011;4031;49.758;6.120;2023-06-01T12:56:27;6.30;;;1.83;;
7971;SDS011;4031;49.758;6.120;2023-06-01T12:58:53;1.73;;;1.60;;
7971;SDS011;4031;49.758;6.120;2023-06-01T13:01:19;3.47;;;1.20;;
7971;SDS011;4031;49.758;6.120;2023-06-01T13:03:45;2.90;;;1.80;;
7971;SDS011;4031;49.758;6.120;2023-06-01T13:06:11;1.63;;;1.50;;
7971;SDS011;4031;49.758;6.120;2023-06-01T13:08:38;2.40;;;1.60;;
7971;SDS011;4031;49.758;6.120;2023-06-01T13:11:04;1.73;;;1.27;;
7971;SDS011;4031;49.758;6.120;2023-06-01T13:13:29;1.60;;;1.40;;
7971;SDS011;4031;49.758;6.120;2023-06-01T13:15:55;4.13;;;1.70;;
7971;SDS011;4031;49.758;6.120;2023-06-01T13:18:21;1.60;;;1.50;;
7971;SDS011;4031;49.758;6.120;2023-06-01T13:20:47;5.03;;;1.57;;
7971;SDS011;4031;49.758;6.120;2023-06-01T13:23:13;8.90;;;2.27;;
7971;SDS011;4031;49.758;6.120;2023-06-01T13:25:39;1.67;;;1.33;;
7971;SDS011;4031;49.758;6.120;2023-06-01T13:28:05;1.77;;;1.47;;
7971;SDS011;4031;49.758;6.120;2023-06-01T13:30:32;2.00;;;1.40;;
7971;SDS011;4031;49.758;6.120;2023-06-01T13:32:59;2.30;;;1.87;;
7971;SDS011;4031;49.758;6.120;2023-06-01T13:35:25;1.80;;;1.70;;
7971;SDS011;4031;49.758;6.120;2023-06-01T13:37:51;2.70;;;1.60;;
7971;SDS011;4031;49.758;6.120;2023-06-01T13:40:17;2.83;;;1.27;;
7971;SDS011;4031;49.758;6.120;2023-06-01T13:42:47;1.60;;;1.50;;
7971;SDS011;4031;49.758;6.120;2023-06-01T13:45:17;3.80;;;1.90;;
7971;SDS011;4031;49.758;6.120;2023-06-01T13:47:44;1.87;;;1.73;;
7971;SDS011;4031;49.758;6.120;2023-06-01T13:50:10;2.57;;;2.00;;
7971;SDS011;4031;49.758;6.120;2023-06-01T13:52:37;1.90;;;1.67;;
7971;SDS011;4031;49.758;6.120;2023-06-01T13:55:04;2.10;;;1.90;;
7971;SDS011;4031;49.758;6.120;2023-06-01T13:57:31;2.50;;;2.30;;
7971;SDS011;4031;49.758;6.120;2023-06-01T13:59:57;5.67;;;2.57;;
7971;SDS011;4031;49.758;6.120;2023-06-01T14:02:23;2.93;;;1.53;;
7971;SDS011;4031;49.758;6.120;2023-06-01T14:04:49;3.20;;;2.77;;
7971;SDS011;4031;49.758;6.120;2023-06-01T14:07:15;6.40;;;2.77;;
7971;SDS011;4031;49.758;6.120;2023-06-01T14:09:41;2.37;;;1.90;;
7971;SDS011;4031;49.758;6.120;2023-06-01T14:12:07;3.67;;;2.40;;
7971;SDS011;4031;49.758;6.120;2023-06-01T14:14:33;2.00;;;1.90;;
7971;SDS011;4031;49.758;6.120;2023-06-01T14:16:59;2.00;;;1.87;;
7971;SDS011;4031;49.758;6.120;2023-06-01T14:19:25;2.57;;;2.20;;
7971;SDS011;4031;49.758;6.120;2023-06-01T14:21:51;2.03;;;1.93;;
7971;SDS011;4031;49.758;6.120;2023-06-01T14:24:18;1.60;;;1.50;;
7971;SDS011;4031;49.758;6.120;2023-06-01T14:26:43;2.33;;;2.13;;
7971;SDS011;4031;49.758;6.120;2023-06-01T14:29:09;2.30;;;2.10;;
7971;SDS011;4031;49.758;6.120;2023-06-01T14:31:35;2.30;;;1.90;;
7971;SDS011;4031;49.758;6.120;2023-06-01T14:34:01;2.33;;;2.03;;
7971;SDS011;4031;49.758;6.120;2023-06-01T14:36:27;4.63;;;2.53;;
7971;SDS011;4031;49.758;6.120;2023-06-01T14:38:53;1.83;;;1.73;;
7971;SDS011;4031;49.758;6.120;2023-06-01T14:41:18;1.93;;;1.83;;
7971;SDS011;4031;49.758;6.120;2023-06-01T14:43:44;2.67;;;2.47;;
7971;SDS011;4031;49.758;6.120;2023-06-01T14:46:10;2.53;;;1.80;;
7971;SDS011;4031;49.758;6.120;2023-06-01T14:48:36;3.00;;;2.40;;
7971;SDS011;4031;49.758;6.120;2023-06-01T14:51:02;4.03;;;2.47;;
7971;SDS011;4031;49.758;6.120;2023-06-01T14:53:28;3.33;;;2.37;;
7971;SDS011;4031;49.758;6.120;2023-06-01T14:55:54;3.63;;;3.00;;
7971;SDS011;4031;49.758;6.120;2023-06-01T14:58:20;2.60;;;2.20;;
7971;SDS011;4031;49.758;6.120;2023-06-01T15:00:45;5.20;;;2.97;;
7971;SDS011;4031;49.758;6.120;2023-06-01T15:03:12;3.50;;;2.63;;
7971;SDS011;4031;49.758;6.120;2023-06-01T15:05:38;3.17;;;2.90;;
7971;SDS011;4031;49.758;6.120;2023-06-01T15:08:07;3.13;;;2.83;;
7971;SDS011;4031;49.758;6.120;2023-06-01T15:10:33;3.63;;;2.97;;
7971;SDS011;4031;49.758;6.120;2023-06-01T15:12:58;3.60;;;3.27;;
7971;SDS011;4031;49.758;6.120;2023-06-01T15:15:24;5.00;;;2.87;;
7971;SDS011;4031;49.758;6.120;2023-06-01T15:17:52;4.10;;;3.00;;
7971;SDS011;4031;49.758;6.120;2023-06-01T15:20:17;3.73;;;2.23;;
7971;SDS011;4031;49.758;6.120;2023-06-01T15:22:43;3.40;;;2.93;;
7971;SDS011;4031;49.758;6.120;2023-06-01T15:25:09;4.10;;;3.13;;
7971;SDS011;4031;49.758;6.120;2023-06-01T15:27:34;3.90;;;3.17;;
7971;SDS011;4031;49.758;6.120;2023-06-01T15:30:01;3.57;;;2.70;;
7971;SDS011;4031;49.758;6.120;2023-06-01T15:32:27;3.97;;;2.87;;
7971;SDS011;4031;49.758;6.120;2023-06-01T15:34:53;4.87;;;3.10;;
7971;SDS011;4031;49.758;6.120;2023-06-01T15:37:18;4.03;;;3.63;;
7971;SDS011;4031;49.758;6.120;2023-06-01T15:39:48;3.93;;;3.17;;
7971;SDS011;4031;49.758;6.120;2023-06-01T15:42:13;3.00;;;2.70;;
7971;SDS011;4031;49.758;6.120;2023-06-01T15:44:40;6.10;;;3.67;;
7971;SDS011;4031;49.758;6.120;2023-06-01T15:47:08;4.50;;;3.73;;
7971;SDS011;4031;49.758;6.120;2023-06-01T15:49:35;3.90;;;3.13;;
7971;SDS011;4031;49.758;6.120;2023-06-01T15:52:04;4.07;;;3.67;;
7971;SDS011;4031;49.758;6.120;2023-06-01T15:54:33;6.40;;;4.73;;